sensor_id;sensor_type;location;lat;lon;timestamp;pressure;altitude;pressure_sealevel;temperature;humidity
27712;BME280;2377;51.734;8.950;2023-07-29T00:01:42;97201.69;;;18.72;89.66
27712;BME280;2377;51.734;8.950;2023-07-29T00:04:11;97200.41;;;18.69;89.54
27712;BME280;2377;51.734;8.950;2023-07-29T00:06:38;97195.81;;;18.66;89.67
27712;BME280;2377;51.734;8.950;2023-07-29T00:09:05;97202.03;;;18.65;89.71
27712;BME280;2377;51.734;8.950;2023-07-29T00:11:32;97183.13;;;18.65;89.82
27712;BME280;2377;51.734;8.950;2023-07-29T00:14:01;97195.81;;;18.66;89.63
27712;BME280;2377;51.734;8.950;2023-07-29T00:16:28;97196.06;;;18.65;89.80
27712;BME280;2377;51.734;8.950;2023-07-29T00:18:55;97189.16;;;18.60;90.05
27712;BME280;2377;51.734;8.950;2023-07-29T00:21:22;97189.72;;;18.57;89.92
27712;BME280;2377;51.734;8.950;2023-07-29T00:23:49;97184.81;;;18.55;90.16
27712;BME280;2377;51.734;8.950;2023-07-29T00:26:16;97183.00;;;18.56;90.45
27712;BME280;2377;51.734;8.950;2023-07-29T00:28:43;97177.03;;;18.55;90.29
27712;BME280;2377;51.734;8.950;2023-07-29T00:31:12;97182.03;;;18.52;90.61
27712;BME280;2377;51.734;8.950;2023-07-29T00:33:39;97181.03;;;18.48;90.55
27712;BME280;2377;51.734;8.950;2023-07-29T00:36:06;97181.59;;;18.45;90.96
27712;BME280;2377;51.734;8.950;2023-07-29T00:38:33;97171.81;;;18.42;91.63
27712;BME280;2377;51.734;8.950;2023-07-29T00:41:02;97172.00;;;18.45;91.79
27712;BME280;2377;51.734;8.950;2023-07-29T00:43:29;97173.75;;;18.50;91.80
27712;BME280;2377;51.734;8.950;2023-07-29T00:45:56;97165.44;;;18.53;92.08
27712;BME280;2377;51.734;8.950;2023-07-29T00:48:26;97163.06;;;18.56;91.83
27712;BME280;2377;51.734;8.950;2023-07-29T00:50:54;97163.56;;;18.58;91.97
27712;BME280;2377;51.734;8.950;2023-07-29T00:53:22;97158.88;;;18.61;91.92
27712;BME280;2377;51.734;8.950;2023-07-29T00:55:48;97156.00;;;18.62;92.03
27712;BME280;2377;51.734;8.950;2023-07-29T00:58:15;97153.88;;;18.64;92.72
27712;BME280;2377;51.734;8.950;2023-07-29T01:00:42;97161.13;;;18.67;93.00
27712;BME280;2377;51.734;8.950;2023-07-29T01:03:09;97160.06;;;18.68;93.58
27712;BME280;2377;51.734;8.950;2023-07-29T01:05:50;97158.22;;;18.69;93.67
27712;BME280;2377;51.734;8.950;2023-07-29T01:08:31;97162.06;;;18.71;93.85
27712;BME280;2377;51.734;8.950;2023-07-29T01:11:11;97153.53;;;18.71;94.16
27712;BME280;2377;51.734;8.950;2023-07-29T01:13:52;97154.31;;;18.71;94.43
27712;BME280;2377;51.734;8.950;2023-07-29T01:16:26;97143.69;;;18.73;94.56
27712;BME280;2377;51.734;8.950;2023-07-29T01:19:03;97144.69;;;18.77;94.78
27712;BME280;2377;51.734;8.950;2023-07-29T01:21:35;97143.41;;;18.74;95.90
27712;BME280;2377;51.734;8.950;2023-07-29T01:24:06;97143.47;;;18.69;96.41
27712;BME280;2377;51.734;8.950;2023-07-29T01:26:33;97147.09;;;18.68;96.84
27712;BME280;2377;51.734;8.950;2023-07-29T01:29:00;97149.69;;;18.68;96.95
27712;BME280;2377;51.734;8.950;2023-07-29T01:31:33;97152.78;;;18.70;97.22
27712;BME280;2377;51.734;8.950;2023-07-29T01:34:09;97159.78;;;18.70;97.26
27712;BME280;2377;51.734;8.950;2023-07-29T01:36:40;97165.44;;;18.72;98.04
27712;BME280;2377;51.734;8.950;2023-07-29T01:39:11;97167.25;;;18.71;98.48
27712;BME280;2377;51.734;8.950;2023-07-29T01:41:39;97157.66;;;18.72;98.79
27712;BME280;2377;51.734;8.950;2023-07-29T01:44:08;97149.91;;;18.72;99.19
27712;BME280;2377;51.734;8.950;2023-07-29T01:46:37;97152.22;;;18.73;99.82
27712;BME280;2377;51.734;8.950;2023-07-29T01:49:05;97142.88;;;18.77;99.95
27712;BME280;2377;51.734;8.950;2023-07-29T01:51:32;97143.84;;;18.82;100.00
27712;BME280;2377;51.734;8.950;2023-07-29T01:53:59;97156.22;;;18.85;100.00
27712;BME280;2377;51.734;8.950;2023-07-29T01:56:28;97143.78;;;18.87;100.00
27712;BME280;2377;51.734;8.950;2023-07-29T01:58:57;97141.19;;;18.87;100.00
27712;BME280;2377;51.734;8.950;2023-07-29T02:01:24;97137.53;;;18.88;100.00
27712;BME280;2377;51.734;8.950;2023-07-29T02:03:51;97136.41;;;18.94;100.00
27712;BME280;2377;51.734;8.950;2023-07-29T02:06:21;97135.06;;;18.96;100.00
27712;BME280;2377;51.734;8.950;2023-07-29T02:08:49;97127.78;;;18.98;100.00
27712;BME280;2377;51.734;8.950;2023-07-29T02:11:16;97126.44;;;19.01;100.00
27712;BME280;2377;51.734;8.950;2023-07-29T02:13:44;97124.03;;;19.05;100.00
27712;BME280;2377;51.734;8.950;2023-07-29T02:16:11;97120.13;;;19.07;100.00
27712;BME280;2377;51.734;8.950;2023-07-29T02:18:38;97116.50;;;19.08;100.00
27712;BME280;2377;51.734;8.950;2023-07-29T02:21:07;97118.00;;;19.09;100.00
27712;BME280;2377;51.734;8.950;2023-07-29T02:23:34;97117.75;;;19.11;100.00
27712;BME280;2377;51.734;8.950;2023-07-29T02:26:01;97113.03;;;19.13;100.00
27712;BME280;2377;51.734;8.950;2023-07-29T02:28:28;97115.38;;;19.14;100.00
27712;BME280;2377;51.734;8.950;2023-07-29T02:31:14;97113.53;;;19.15;99.89
27712;BME280;2377;51.734;8.950;2023-07-29T02:33:42;97117.16;;;19.14;100.00
27712;BME280;2377;51.734;8.950;2023-07-29T02:36:09;97118.72;;;19.15;100.00
27712;BME280;2377;51.734;8.950;2023-07-29T02:38:36;97118.72;;;19.15;100.00
27712;BME280;2377;51.734;8.950;2023-07-29T02:41:03;97117.16;;;19.14;100.00
27712;BME280;2377;51.734;8.950;2023-07-29T02:43:30;97119.00;;;19.13;100.00
27712;BME280;2377;51.734;8.950;2023-07-29T02:45:57;97107.88;;;19.13;100.00
27712;BME280;2377;51.734;8.950;2023-07-29T02:48:25;97107.09;;;19.12;100.00
27712;BME280;2377;51.734;8.950;2023-07-29T02:50:52;97110.72;;;19.11;100.00
27712;BME280;2377;51.734;8.950;2023-07-29T02:53:19;97100.84;;;19.13;100.00
27712;BME280;2377;51.734;8.950;2023-07-29T02:55:46;97093.09;;;19.13;100.00
27712;BME280;2377;51.734;8.950;2023-07-29T02:58:13;97090.22;;;19.15;100.00
27712;BME280;2377;51.734;8.950;2023-07-29T03:00:40;97087.63;;;19.15;100.00
27712;BME280;2377;51.734;8.950;2023-07-29T03:03:09;97095.41;;;19.15;100.00
27712;BME280;2377;51.734;8.950;2023-07-29T03:05:37;97088.47;;;19.10;100.00
27712;BME280;2377;51.734;8.950;2023-07-29T03:08:04;97077.34;;;19.10;100.00
27712;BME280;2377;51.734;8.950;2023-07-29T03:10:34;97080.97;;;19.09;100.00
27712;BME280;2377;51.734;8.950;2023-07-29T03:13:01;97075.81;;;19.09;100.00
27712;BME280;2377;51.734;8.950;2023-07-29T03:15:29;97082.53;;;19.10;100.00
27712;BME280;2377;51.734;8.950;2023-07-29T03:17:56;97086.44;;;19.07;100.00
27712;BME280;2377;51.734;8.950;2023-07-29T03:20:22;97086.75;;;19.06;100.00
27712;BME280;2377;51.734;8.950;2023-07-29T03:22:51;97080.31;;;19.03;100.00
27712;BME280;2377;51.734;8.950;2023-07-29T03:25:18;97082.91;;;19.03;100.00
27712;BME280;2377;51.734;8.950;2023-07-29T03:27:45;97084.16;;;19.06;100.00
27712;BME280;2377;51.734;8.950;2023-07-29T03:30:15;97078.66;;;19.07;100.00
27712;BME280;2377;51.734;8.950;2023-07-29T03:32:44;97073.50;;;19.07;100.00
27712;BME280;2377;51.734;8.950;2023-07-29T03:35:12;97073.50;;;19.07;100.00
27712;BME280;2377;51.734;8.950;2023-07-29T03:37:39;97069.09;;;19.08;100.00
27712;BME280;2377;51.734;8.950;2023-07-29T03:40:09;97068.31;;;19.07;100.00
27712;BME280;2377;51.734;8.950;2023-07-29T03:42:36;97069.09;;;19.08;100.00
27712;BME280;2377;51.734;8.950;2023-07-29T03:45:04;97066.03;;;19.06;100.00
27712;BME280;2377;51.734;8.950;2023-07-29T03:47:31;97062.94;;;19.04;100.00
27712;BME280;2377;51.734;8.950;2023-07-29T03:49:58;97065.25;;;19.05;100.00
27712;BME280;2377;51.734;8.950;2023-07-29T03:52:25;97066.03;;;19.06;100.00
27712;BME280;2377;51.734;8.950;2023-07-29T03:54:53;97067.28;;;19.08;100.00
27712;BME280;2377;51.734;8.950;2023-07-29T03:57:21;97064.09;;;19.11;100.00
27712;BME280;2377;51.734;8.950;2023-07-29T03:59:48;97062.00;;;19.13;100.00
27712;BME280;2377;51.734;8.950;2023-07-29T04:02:15;97062.56;;;19.10;100.00
27712;BME280;2377;51.734;8.950;2023-07-29T04:04:42;97061.88;;;19.05;100.00
27712;BME280;2377;51.734;8.950;2023-07-29T04:07:13;97056.25;;;19.03;100.00
27712;BME280;2377;51.734;8.950;2023-07-29T04:09:40;97052.00;;;19.07;100.00
27712;BME280;2377;51.734;8.950;2023-07-29T04:12:09;97054.31;;;19.08;100.00
27712;BME280;2377;51.734;8.950;2023-07-29T04:14:37;97058.44;;;19.09;100.00
27712;BME280;2377;51.734;8.950;2023-07-29T04:17:05;97056.31;;;19.11;100.00
27712;BME280;2377;51.734;8.950;2023-07-29T04:19:32;97065.66;;;19.12;100.00
27712;BME280;2377;51.734;8.950;2023-07-29T04:22:06;97065.06;;;19.15;100.00
27712;BME280;2377;51.734;8.950;2023-07-29T04:24:39;97067.66;;;19.15;100.00
27712;BME280;2377;51.734;8.950;2023-07-29T04:27:07;97066.59;;;19.16;100.00
27712;BME280;2377;51.734;8.950;2023-07-29T04:29:35;97059.63;;;19.17;100.00
27712;BME280;2377;51.734;8.950;2023-07-29T04:32:04;97052.88;;;19.16;100.00
27712;BME280;2377;51.734;8.950;2023-07-29T04:34:32;97059.13;;;19.15;100.00
27712;BME280;2377;51.734;8.950;2023-07-29T04:36:59;97079.38;;;19.13;100.00
27712;BME280;2377;51.734;8.950;2023-07-29T04:39:26;97067.44;;;19.12;100.00
27712;BME280;2377;51.734;8.950;2023-07-29T04:41:53;97059.69;;;19.12;100.00
27712;BME280;2377;51.734;8.950;2023-07-29T04:44:21;97058.38;;;19.14;100.00
27712;BME280;2377;51.734;8.950;2023-07-29T04:46:48;97053.66;;;19.16;100.00
27712;BME280;2377;51.734;8.950;2023-07-29T04:49:16;97062.22;;;19.17;100.00
27712;BME280;2377;51.734;8.950;2023-07-29T04:51:43;97063.56;;;19.14;100.00
27712;BME280;2377;51.734;8.950;2023-07-29T04:54:10;97059.88;;;19.15;100.00
27712;BME280;2377;51.734;8.950;2023-07-29T04:56:37;97045.88;;;19.16;100.00
27712;BME280;2377;51.734;8.950;2023-07-29T04:59:05;97062.66;;;19.19;100.00
27712;BME280;2377;51.734;8.950;2023-07-29T05:01:34;97064.50;;;19.18;100.00
27712;BME280;2377;51.734;8.950;2023-07-29T05:04:02;97044.53;;;19.19;100.00
27712;BME280;2377;51.734;8.950;2023-07-29T05:06:30;97042.41;;;19.21;100.00
27712;BME280;2377;51.734;8.950;2023-07-29T05:08:57;97035.22;;;19.18;100.00
27712;BME280;2377;51.734;8.950;2023-07-29T05:11:24;97043.75;;;19.18;100.00
27712;BME280;2377;51.734;8.950;2023-07-29T05:13:52;97045.31;;;19.19;100.00
27712;BME280;2377;51.734;8.950;2023-07-29T05:16:19;97030.25;;;19.21;100.00
27712;BME280;2377;51.734;8.950;2023-07-29T05:18:46;97028.69;;;19.20;100.00
27712;BME280;2377;51.734;8.950;2023-07-29T05:21:20;97034.38;;;19.22;100.00
27712;BME280;2377;51.734;8.950;2023-07-29T05:23:48;97046.25;;;19.23;100.00
27712;BME280;2377;51.734;8.950;2023-07-29T05:26:15;97040.03;;;19.25;100.00
27712;BME280;2377;51.734;8.950;2023-07-29T05:28:42;97031.19;;;19.26;100.00
27712;BME280;2377;51.734;8.950;2023-07-29T05:31:09;97035.03;;;19.28;100.00
27712;BME280;2377;51.734;8.950;2023-07-29T05:33:36;97033.22;;;19.29;100.00
27712;BME280;2377;51.734;8.950;2023-07-29T05:36:04;97038.41;;;19.29;100.00
27712;BME280;2377;51.734;8.950;2023-07-29T05:38:31;97036.88;;;19.28;100.00
27712;BME280;2377;51.734;8.950;2023-07-29T05:41:00;97043.13;;;19.27;100.00
27712;BME280;2377;51.734;8.950;2023-07-29T05:43:27;97039.56;;;19.22;100.00
27712;BME280;2377;51.734;8.950;2023-07-29T05:45:54;97045.22;;;19.25;100.00
27712;BME280;2377;51.734;8.950;2023-07-29T05:48:21;97035.88;;;19.23;100.00
27712;BME280;2377;51.734;8.950;2023-07-29T05:50:48;97033.22;;;19.29;100.00
27712;BME280;2377;51.734;8.950;2023-07-29T05:53:16;97039.34;;;19.33;100.00
27712;BME280;2377;51.734;8.950;2023-07-29T05:55:43;97037.72;;;19.37;100.00
27712;BME280;2377;51.734;8.950;2023-07-29T05:58:11;97038.41;;;19.42;100.00
27712;BME280;2377;51.734;8.950;2023-07-29T06:00:38;97043.88;;;19.41;100.00
27712;BME280;2377;51.734;8.950;2023-07-29T06:03:05;97051.66;;;19.41;100.00
27712;BME280;2377;51.734;8.950;2023-07-29T06:05:32;97044.38;;;19.43;100.00
27712;BME280;2377;51.734;8.950;2023-07-29T06:07:59;97044.91;;;19.40;100.00
27712;BME280;2377;51.734;8.950;2023-07-29T06:10:26;97047.50;;;19.40;100.00
27712;BME280;2377;51.734;8.950;2023-07-29T06:12:53;97055.00;;;19.41;100.00
27712;BME280;2377;51.734;8.950;2023-07-29T06:15:21;97058.19;;;19.38;100.00
27712;BME280;2377;51.734;8.950;2023-07-29T06:17:48;97057.88;;;19.40;100.00
27712;BME280;2377;51.734;8.950;2023-07-29T06:20:15;97063.38;;;19.38;100.00
27712;BME280;2377;51.734;8.950;2023-07-29T06:22:43;97067.00;;;19.37;100.00
27712;BME280;2377;51.734;8.950;2023-07-29T06:25:10;97063.66;;;19.37;100.00
27712;BME280;2377;51.734;8.950;2023-07-29T06:27:37;97064.13;;;19.39;100.00
27712;BME280;2377;51.734;8.950;2023-07-29T06:30:06;97066.44;;;19.40;100.00
27712;BME280;2377;51.734;8.950;2023-07-29T06:32:34;97073.16;;;19.41;100.00
27712;BME280;2377;51.734;8.950;2023-07-29T06:35:02;97068.25;;;19.40;100.00
27712;BME280;2377;51.734;8.950;2023-07-29T06:37:29;97067.97;;;19.41;100.00
27712;BME280;2377;51.734;8.950;2023-07-29T06:39:56;97065.09;;;19.43;100.00
27712;BME280;2377;51.734;8.950;2023-07-29T06:42:23;97063.75;;;19.46;100.00
27712;BME280;2377;51.734;8.950;2023-07-29T06:44:50;97058.75;;;19.49;100.00
27712;BME280;2377;51.734;8.950;2023-07-29T06:47:17;97064.91;;;19.53;100.00
27712;BME280;2377;51.734;8.950;2023-07-29T06:49:46;97069.50;;;19.56;100.00
27712;BME280;2377;51.734;8.950;2023-07-29T06:52:13;97062.50;;;19.57;100.00
27712;BME280;2377;51.734;8.950;2023-07-29T06:54:40;97067.69;;;19.57;100.00
27712;BME280;2377;51.734;8.950;2023-07-29T06:57:07;97062.78;;;19.55;100.00
27712;BME280;2377;51.734;8.950;2023-07-29T06:59:34;97045.72;;;19.54;100.00
27712;BME280;2377;51.734;8.950;2023-07-29T07:02:01;97053.19;;;19.56;100.00
27712;BME280;2377;51.734;8.950;2023-07-29T07:04:28;97055.66;;;19.61;100.00
27712;BME280;2377;51.734;8.950;2023-07-29T07:06:56;97060.56;;;19.62;100.00
27712;BME280;2377;51.734;8.950;2023-07-29T07:09:23;97069.59;;;19.65;100.00
27712;BME280;2377;51.734;8.950;2023-07-29T07:11:50;97062.59;;;19.65;100.00
27712;BME280;2377;51.734;8.950;2023-07-29T07:14:18;97064.13;;;19.67;100.00
27712;BME280;2377;51.734;8.950;2023-07-29T07:16:45;97068.56;;;19.66;100.00
27712;BME280;2377;51.734;8.950;2023-07-29T07:19:12;97067.00;;;19.65;100.00
27712;BME280;2377;51.734;8.950;2023-07-29T07:21:39;97075.06;;;19.63;100.00
27712;BME280;2377;51.734;8.950;2023-07-29T07:24:07;97075.84;;;19.64;100.00
27712;BME280;2377;51.734;8.950;2023-07-29T07:26:34;97077.19;;;19.61;100.00
27712;BME280;2377;51.734;8.950;2023-07-29T07:29:01;97075.66;;;19.60;100.00
27712;BME280;2377;51.734;8.950;2023-07-29T07:31:32;97079.50;;;19.63;100.00
27712;BME280;2377;51.734;8.950;2023-07-29T07:34:00;97080.25;;;19.63;100.00
27712;BME280;2377;51.734;8.950;2023-07-29T07:36:27;97085.44;;;19.63;100.00
27712;BME280;2377;51.734;8.950;2023-07-29T07:38:54;97081.03;;;19.64;100.00
27712;BME280;2377;51.734;8.950;2023-07-29T07:41:23;97093.69;;;19.65;100.00
27712;BME280;2377;51.734;8.950;2023-07-29T07:43:50;97096.28;;;19.65;100.00
27712;BME280;2377;51.734;8.950;2023-07-29T07:46:17;97096.78;;;19.68;100.00
27712;BME280;2377;51.734;8.950;2023-07-29T07:48:44;97096.22;;;19.71;100.00
27712;BME280;2377;51.734;8.950;2023-07-29T07:51:11;97092.59;;;19.72;100.00
27712;BME280;2377;51.734;8.950;2023-07-29T07:53:39;97099.50;;;19.76;100.00
27712;BME280;2377;51.734;8.950;2023-07-29T07:56:06;97087.88;;;19.74;100.00
27712;BME280;2377;51.734;8.950;2023-07-29T07:58:35;97092.97;;;19.79;100.00
27712;BME280;2377;51.734;8.950;2023-07-29T08:01:03;97094.78;;;19.78;100.00
27712;BME280;2377;51.734;8.950;2023-07-29T08:03:30;97094.78;;;19.78;100.00
27712;BME280;2377;51.734;8.950;2023-07-29T08:05:57;97091.72;;;19.76;100.00
27712;BME280;2377;51.734;8.950;2023-07-29T08:08:25;97083.56;;;19.83;100.00
27712;BME280;2377;51.734;8.950;2023-07-29T08:10:53;97086.63;;;19.85;100.00
27712;BME280;2377;51.734;8.950;2023-07-29T08:13:20;97086.81;;;19.89;100.00
27712;BME280;2377;51.734;8.950;2023-07-29T08:15:51;97085.44;;;19.91;100.00
27712;BME280;2377;51.734;8.950;2023-07-29T08:18:19;97085.44;;;19.91;100.00
27712;BME280;2377;51.734;8.950;2023-07-29T08:20:53;97087.00;;;19.92;100.00
27712;BME280;2377;51.734;8.950;2023-07-29T08:23:21;97083.22;;;19.98;100.00
27712;BME280;2377;51.734;8.950;2023-07-29T08:25:53;97092.09;;;19.97;100.00
27712;BME280;2377;51.734;8.950;2023-07-29T08:28:22;97096.31;;;19.93;100.00
27712;BME280;2377;51.734;8.950;2023-07-29T08:30:50;97101.22;;;19.81;100.00
27712;BME280;2377;51.734;8.950;2023-07-29T08:33:17;97106.59;;;19.71;100.00
27712;BME280;2377;51.734;8.950;2023-07-29T08:35:44;97107.16;;;19.68;100.00
27712;BME280;2377;51.734;8.950;2023-07-29T08:38:11;97106.31;;;19.72;100.00
27712;BME280;2377;51.734;8.950;2023-07-29T08:40:45;97108.88;;;19.58;100.00
27712;BME280;2377;51.734;8.950;2023-07-29T08:43:16;97107.25;;;19.62;100.00
27712;BME280;2377;51.734;8.950;2023-07-29T08:45:44;97107.06;;;19.73;100.00
27712;BME280;2377;51.734;8.950;2023-07-29T08:48:15;97109.75;;;19.68;100.00
27712;BME280;2377;51.734;8.950;2023-07-29T08:50:47;97113.69;;;19.65;100.00
27712;BME280;2377;51.734;8.950;2023-07-29T08:53:14;97107.56;;;19.75;100.00
27712;BME280;2377;51.734;8.950;2023-07-29T08:55:41;97097.78;;;19.72;100.00
27712;BME280;2377;51.734;8.950;2023-07-29T08:58:09;97098.81;;;19.71;100.00
27712;BME280;2377;51.734;8.950;2023-07-29T09:00:38;97104.84;;;19.80;100.00
27712;BME280;2377;51.734;8.950;2023-07-29T09:03:06;97103.72;;;19.86;100.00
27712;BME280;2377;51.734;8.950;2023-07-29T09:05:35;97105.25;;;19.87;100.00
27712;BME280;2377;51.734;8.950;2023-07-29T09:08:04;97102.63;;;20.01;100.00
27712;BME280;2377;51.734;8.950;2023-07-29T09:10:35;97109.75;;;19.95;100.00
27712;BME280;2377;51.734;8.950;2023-07-29T09:13:03;97100.44;;;19.94;100.00
27712;BME280;2377;51.734;8.950;2023-07-29T09:15:33;97095.22;;;20.08;100.00
27712;BME280;2377;51.734;8.950;2023-07-29T09:18:10;97099.63;;;20.21;100.00
27712;BME280;2377;51.734;8.950;2023-07-29T09:20:39;97094.56;;;20.39;100.00
27712;BME280;2377;51.734;8.950;2023-07-29T09:23:09;97095.13;;;20.49;100.00
27712;BME280;2377;51.734;8.950;2023-07-29T09:25:37;97108.56;;;20.52;100.00
27712;BME280;2377;51.734;8.950;2023-07-29T09:28:09;97109.44;;;20.61;100.00
27712;BME280;2377;51.734;8.950;2023-07-29T09:30:38;97107.84;;;20.74;100.00
27712;BME280;2377;51.734;8.950;2023-07-29T09:33:06;97107.38;;;20.94;100.00
27712;BME280;2377;51.734;8.950;2023-07-29T09:35:36;97109.19;;;20.94;97.70
27712;BME280;2377;51.734;8.950;2023-07-29T09:38:06;97108.66;;;21.05;95.50
27712;BME280;2377;51.734;8.950;2023-07-29T09:40:37;97125.19;;;21.09;94.73
27712;BME280;2377;51.734;8.950;2023-07-29T09:43:06;97119.00;;;20.97;94.34
27712;BME280;2377;51.734;8.950;2023-07-29T09:45:35;97121.59;;;20.97;95.65
27712;BME280;2377;51.734;8.950;2023-07-29T09:48:05;97117.00;;;20.94;95.53
27712;BME280;2377;51.734;8.950;2023-07-29T09:50:36;97111.31;;;20.92;93.93
27712;BME280;2377;51.734;8.950;2023-07-29T09:53:07;97117.22;;;20.83;93.28
27712;BME280;2377;51.734;8.950;2023-07-29T09:55:34;97122.25;;;20.80;92.12
27712;BME280;2377;51.734;8.950;2023-07-29T09:58:02;97123.38;;;20.65;92.34
27712;BME280;2377;51.734;8.950;2023-07-29T10:00:33;97118.91;;;20.79;93.10
27712;BME280;2377;51.734;8.950;2023-07-29T10:03:00;97118.38;;;21.00;92.91
27712;BME280;2377;51.734;8.950;2023-07-29T10:05:29;97117.91;;;21.20;93.00
27712;BME280;2377;51.734;8.950;2023-07-29T10:07:56;97116.44;;;21.37;92.34
27712;BME280;2377;51.734;8.950;2023-07-29T10:10:27;97115.19;;;21.57;93.00
27712;BME280;2377;51.734;8.950;2023-07-29T10:12:56;97119.03;;;21.59;89.50
27712;BME280;2377;51.734;8.950;2023-07-29T10:15:25;97129.69;;;21.49;88.25
27712;BME280;2377;51.734;8.950;2023-07-29T10:17:52;97116.06;;;21.43;85.72
27712;BME280;2377;51.734;8.950;2023-07-29T10:20:20;97113.38;;;21.35;84.68
27712;BME280;2377;51.734;8.950;2023-07-29T10:22:48;97114.28;;;21.30;86.37
27712;BME280;2377;51.734;8.950;2023-07-29T10:25:21;97115.03;;;21.30;86.12
27712;BME280;2377;51.734;8.950;2023-07-29T10:27:56;97123.78;;;21.35;86.24
27712;BME280;2377;51.734;8.950;2023-07-29T10:30:28;97125.22;;;21.18;80.47
27712;BME280;2377;51.734;8.950;2023-07-29T10:32:58;97130.19;;;21.28;79.90
27712;BME280;2377;51.734;8.950;2023-07-29T10:35:25;97124.91;;;21.42;82.29
27712;BME280;2377;51.734;8.950;2023-07-29T10:37:53;97123.91;;;21.52;80.70
27712;BME280;2377;51.734;8.950;2023-07-29T10:40:20;97124.38;;;21.63;79.84
27712;BME280;2377;51.734;8.950;2023-07-29T10:43:03;97127.81;;;21.81;78.74
27712;BME280;2377;51.734;8.950;2023-07-29T10:45:40;97116.31;;;21.82;76.01
27712;BME280;2377;51.734;8.950;2023-07-29T10:48:11;97115.59;;;21.90;76.08
27712;BME280;2377;51.734;8.950;2023-07-29T10:50:39;97133.34;;;21.88;75.70
27712;BME280;2377;51.734;8.950;2023-07-29T10:53:06;97128.94;;;21.97;77.06
27712;BME280;2377;51.734;8.950;2023-07-29T10:55:35;97127.09;;;22.06;74.25
27712;BME280;2377;51.734;8.950;2023-07-29T10:58:12;97123.44;;;22.07;75.41
27712;BME280;2377;51.734;8.950;2023-07-29T11:00:42;97119.16;;;22.11;74.68
27712;BME280;2377;51.734;8.950;2023-07-29T11:03:12;97114.38;;;21.96;73.94
27712;BME280;2377;51.734;8.950;2023-07-29T11:05:51;97132.94;;;22.12;74.56
27712;BME280;2377;51.734;8.950;2023-07-29T11:08:21;97121.19;;;22.23;73.25
27712;BME280;2377;51.734;8.950;2023-07-29T11:11:05;97123.19;;;22.35;72.18
27712;BME280;2377;51.734;8.950;2023-07-29T11:13:36;97128.09;;;22.45;72.35
27712;BME280;2377;51.734;8.950;2023-07-29T11:16:05;97127.50;;;22.48;72.21
27712;BME280;2377;51.734;8.950;2023-07-29T11:18:34;97128.53;;;22.21;69.18
27712;BME280;2377;51.734;8.950;2023-07-29T11:21:03;97131.91;;;22.22;70.42
27712;BME280;2377;51.734;8.950;2023-07-29T11:23:33;97127.16;;;22.24;68.72
27712;BME280;2377;51.734;8.950;2023-07-29T11:26:01;97133.44;;;22.31;70.30
27712;BME280;2377;51.734;8.950;2023-07-29T11:28:30;97133.16;;;22.42;68.53
27712;BME280;2377;51.734;8.950;2023-07-29T11:30:59;97130.84;;;22.40;67.86
27712;BME280;2377;51.734;8.950;2023-07-29T11:33:27;97131.75;;;22.27;67.41
27712;BME280;2377;51.734;8.950;2023-07-29T11:35:54;97131.00;;;22.35;70.20
27712;BME280;2377;51.734;8.950;2023-07-29T11:38:24;97131.13;;;22.38;68.62
27712;BME280;2377;51.734;8.950;2023-07-29T11:40:57;97129.94;;;22.45;70.81
27712;BME280;2377;51.734;8.950;2023-07-29T11:43:25;97136.03;;;22.57;68.00
27712;BME280;2377;51.734;8.950;2023-07-29T11:46:05;97127.03;;;22.46;69.20
27712;BME280;2377;51.734;8.950;2023-07-29T11:48:38;97126.88;;;22.51;69.06
27712;BME280;2377;51.734;8.950;2023-07-29T11:51:20;97119.53;;;22.53;68.43
27712;BME280;2377;51.734;8.950;2023-07-29T11:53:59;97127.00;;;22.55;69.35
27712;BME280;2377;51.734;8.950;2023-07-29T11:56:27;97125.03;;;22.61;69.12
27712;BME280;2377;51.734;8.950;2023-07-29T11:58:55;97127.47;;;22.66;67.71
27712;BME280;2377;51.734;8.950;2023-07-29T12:01:27;97118.88;;;22.74;70.45
27712;BME280;2377;51.734;8.950;2023-07-29T12:03:55;97117.78;;;22.92;69.40
27712;BME280;2377;51.734;8.950;2023-07-29T12:06:24;97119.75;;;23.13;68.07
27712;BME280;2377;51.734;8.950;2023-07-29T12:08:51;97123.75;;;23.19;67.69
27712;BME280;2377;51.734;8.950;2023-07-29T12:11:18;97125.91;;;23.17;65.38
27712;BME280;2377;51.734;8.950;2023-07-29T12:13:47;97129.56;;;23.16;65.96
27712;BME280;2377;51.734;8.950;2023-07-29T12:16:16;97123.25;;;23.26;65.68
27712;BME280;2377;51.734;8.950;2023-07-29T12:18:45;97126.63;;;23.26;66.60
27712;BME280;2377;51.734;8.950;2023-07-29T12:21:14;97131.69;;;23.31;65.92
27712;BME280;2377;51.734;8.950;2023-07-29T12:23:41;97124.31;;;23.33;64.38
27712;BME280;2377;51.734;8.950;2023-07-29T12:26:08;97116.97;;;23.27;65.41
27712;BME280;2377;51.734;8.950;2023-07-29T12:28:35;97118.97;;;23.21;63.85
27712;BME280;2377;51.734;8.950;2023-07-29T12:31:07;97126.50;;;23.14;67.06
27712;BME280;2377;51.734;8.950;2023-07-29T12:33:36;97123.88;;;23.14;66.37
27712;BME280;2377;51.734;8.950;2023-07-29T12:36:06;97124.69;;;23.06;63.64
27712;BME280;2377;51.734;8.950;2023-07-29T12:38:33;97128.97;;;23.02;64.91
27712;BME280;2377;51.734;8.950;2023-07-29T12:41:00;97130.34;;;22.90;63.77
27712;BME280;2377;51.734;8.950;2023-07-29T12:43:27;97119.31;;;22.93;65.84
27712;BME280;2377;51.734;8.950;2023-07-29T12:45:54;97122.38;;;22.95;66.27
27712;BME280;2377;51.734;8.950;2023-07-29T12:48:23;97120.41;;;23.01;65.70
27712;BME280;2377;51.734;8.950;2023-07-29T12:50:50;97129.59;;;22.98;66.24
27712;BME280;2377;51.734;8.950;2023-07-29T12:53:18;97121.94;;;22.93;65.25
27712;BME280;2377;51.734;8.950;2023-07-29T12:55:45;97126.34;;;22.93;65.70
27712;BME280;2377;51.734;8.950;2023-07-29T12:58:12;97123.94;;;22.79;65.14
27712;BME280;2377;51.734;8.950;2023-07-29T13:00:39;97116.25;;;22.74;66.50
27712;BME280;2377;51.734;8.950;2023-07-29T13:03:06;97109.84;;;22.71;66.31
27712;BME280;2377;51.734;8.950;2023-07-29T13:05:33;97118.75;;;22.70;68.14
27712;BME280;2377;51.734;8.950;2023-07-29T13:08:00;97117.81;;;22.75;66.94
27712;BME280;2377;51.734;8.950;2023-07-29T13:10:28;97115.34;;;22.78;67.91
27712;BME280;2377;51.734;8.950;2023-07-29T13:12:55;97112.44;;;22.80;67.07